KALI/ALI METAR and TAF weather

Enter ICAO airport designator
Station Type Date Time Source
KALI METAR 2023/09/21 18:53 UTC NOAA

KALI 211853Z AUTO 08006KT 10SM BKN055 35/21 A2993 RMK AO2 SLP133 T03500206


Station Type Date Time Source
KALI Decoded METAR 2023/09/21 18:53 UTC NOAA

ALICE INTERNATIONAL AIRPORT, TX, United States (KALI) 27-44N 098-01W 53M
Sep 21, 2023 - 02:53 PM EDT / 2023.09.21 1853 UTC
Wind: from the E (080 degrees) at 7 MPH (6 KT):0
Visibility: 10 mile(s):0
Sky conditions: mostly cloudy
Temperature: 95.0 F (35.0 C)
Heat index: 100.8 F (38.2 C):1
Dew Point: 69.1 F (20.6 C)
Relative Humidity: 43%
Pressure (altimeter): 29.93 in. Hg (1013 hPa)
ob: KALI 211853Z AUTO 08006KT 10SM BKN055 35/21 A2993 RMK AO2 SLP133 T03500206
cycle: 19

Station Type Date Time Source
KALI TAF 2023/09/21 18:24 UTC NOAA

TAF KALI 211720Z 2118/2218 17012KT P6SM SCT040
FM212000 13013G20KT P6SM FEW060
FM220100 14008KT P6SM FEW020
TEMPO 2210/2213 4SM BR BKN020

Example: see airport list